Portada
METAR-TAF:

METAR-TAF

Aeroports :

Bullsbrook, Austràlia

latitud: 31-40S, longitud: 116-01E, altitud: 45 m

Observació

L'informe es va fer fa 20 minuts, a les 10:00 UTC
Vent 7 kt del Sud-Oest
Temperatura 17°C
Humitat 77%
Pressió 1020 hPa
Visibilitat 10 km o més

METAR: YPEA 241000Z AUTO 23007KT 9999 // NCD 17/13 Q1020

Hora: 18:20 (10:20 UTC)

Pronòstic

L'informe es va fer fa 5 hores i 45 minuts, a les 04:35 UTC
Pronòstic vàlid del 24 a les 06 UTC al 24 a les 24 UTC
Vent 10 kt del Oest/Sud-Oest
Visibilitat 10 km o més
Núvols disperses a una alçada de 3000 ft
A partir de les 24 a les 1400 UTC
Vent 5 kt del Sud/Sud-Oest
Visibilitat 10 km o més
Cel ennuvolat a una alçada de 1000 ft
Probabilitat 30%
l' 24 a les 16 UTC al 24 a les 24 UTC
Visibilitat: 0300 m
boira

TAF: YPEA 240435Z 2406/2424 24010KT 9999 SCT030 FM241400 20005KT 9999 BKN010 PROB30 2416/2424 0300 FG

Observacions i pronòstics meteorològics de més de 4000 aeroports (METAR i TAF).

Les estacions disponibles són els punts grocs i vermells al mapa.

Posi el ratolí al punt desitjat per veure el nom de l'estació.

Feu clic per veure les observacions i els pronòstics meteorològics.

Per canviar el mapa: feu clic els botons verds amb una creu de color negre per apropar; al botó verd amb un guió per allunyar la imatge; o en les fletxes verdes per a mapes adjacents.


METAR-TAF: